sensor_id;sensor_type;location;lat;lon;timestamp;P1;durP1;ratioP1;P2;durP2;ratioP2
54921;SDS011;40824;45.116;21.296;2023-05-07T00:02:11;7.80;;;6.00;;
54921;SDS011;40824;45.116;21.296;2023-05-07T00:04:38;9.40;;;4.78;;
54921;SDS011;40824;45.116;21.296;2023-05-07T00:07:04;5.72;;;4.75;;
54921;SDS011;40824;45.116;21.296;2023-05-07T00:09:30;7.07;;;4.80;;
54921;SDS011;40824;45.116;21.296;2023-05-07T00:11:56;8.23;;;5.22;;
54921;SDS011;40824;45.116;21.296;2023-05-07T00:14:22;12.63;;;5.63;;
54921;SDS011;40824;45.116;21.296;2023-05-07T00:16:51;8.45;;;5.75;;
54921;SDS011;40824;45.116;21.296;2023-05-07T00:19:17;8.27;;;4.72;;
54921;SDS011;40824;45.116;21.296;2023-05-07T00:21:43;7.32;;;5.18;;
54921;SDS011;40824;45.116;21.296;2023-05-07T00:24:10;7.95;;;4.97;;
54921;SDS011;40824;45.116;21.296;2023-05-07T00:26:36;7.55;;;5.45;;
54921;SDS011;40824;45.116;21.296;2023-05-07T00:29:02;9.02;;;5.03;;
54921;SDS011;40824;45.116;21.296;2023-05-07T00:31:28;9.45;;;5.45;;
54921;SDS011;40824;45.116;21.296;2023-05-07T00:33:54;7.57;;;5.47;;
54921;SDS011;40824;45.116;21.296;2023-05-07T00:36:20;10.55;;;5.50;;
54921;SDS011;40824;45.116;21.296;2023-05-07T00:38:46;7.05;;;5.30;;
54921;SDS011;40824;45.116;21.296;2023-05-07T00:41:12;7.65;;;5.45;;
54921;SDS011;40824;45.116;21.296;2023-05-07T00:43:38;9.88;;;5.95;;
54921;SDS011;40824;45.116;21.296;2023-05-07T00:46:04;7.32;;;5.85;;
54921;SDS011;40824;45.116;21.296;2023-05-07T00:48:31;10.10;;;6.18;;
54921;SDS011;40824;45.116;21.296;2023-05-07T00:50:57;7.88;;;6.10;;
54921;SDS011;40824;45.116;21.296;2023-05-07T00:53:23;8.45;;;5.82;;
54921;SDS011;40824;45.116;21.296;2023-05-07T00:55:50;6.88;;;5.00;;
54921;SDS011;40824;45.116;21.296;2023-05-07T00:58:16;9.57;;;6.30;;
54921;SDS011;40824;45.116;21.296;2023-05-07T01:00:42;8.30;;;5.40;;
54921;SDS011;40824;45.116;21.296;2023-05-07T01:03:08;6.97;;;5.30;;
54921;SDS011;40824;45.116;21.296;2023-05-07T01:05:34;8.40;;;6.00;;
54921;SDS011;40824;45.116;21.296;2023-05-07T01:08:01;7.32;;;6.00;;
54921;SDS011;40824;45.116;21.296;2023-05-07T01:10:27;7.00;;;5.95;;
54921;SDS011;40824;45.116;21.296;2023-05-07T01:12:55;7.55;;;5.70;;
54921;SDS011;40824;45.116;21.296;2023-05-07T01:15:22;6.90;;;5.60;;
54921;SDS011;40824;45.116;21.296;2023-05-07T01:17:48;6.28;;;5.28;;
54921;SDS011;40824;45.116;21.296;2023-05-07T01:20:14;9.15;;;5.35;;
54921;SDS011;40824;45.116;21.296;2023-05-07T01:22:41;7.97;;;5.57;;
54921;SDS011;40824;45.116;21.296;2023-05-07T01:25:08;6.90;;;5.13;;
54921;SDS011;40824;45.116;21.296;2023-05-07T01:27:35;8.40;;;5.60;;
54921;SDS011;40824;45.116;21.296;2023-05-07T01:30:02;9.60;;;4.90;;
54921;SDS011;40824;45.116;21.296;2023-05-07T01:32:30;9.80;;;6.32;;
54921;SDS011;40824;45.116;21.296;2023-05-07T01:34:58;9.57;;;5.18;;
54921;SDS011;40824;45.116;21.296;2023-05-07T01:37:25;10.25;;;5.53;;
54921;SDS011;40824;45.116;21.296;2023-05-07T01:39:52;7.47;;;5.38;;
54921;SDS011;40824;45.116;21.296;2023-05-07T01:42:18;6.70;;;4.75;;
54921;SDS011;40824;45.116;21.296;2023-05-07T01:44:44;7.30;;;5.07;;
54921;SDS011;40824;45.116;21.296;2023-05-07T01:47:11;7.57;;;4.68;;
54921;SDS011;40824;45.116;21.296;2023-05-07T01:49:37;8.30;;;4.88;;
54921;SDS011;40824;45.116;21.296;2023-05-07T01:52:03;8.05;;;5.10;;
54921;SDS011;40824;45.116;21.296;2023-05-07T01:54:30;8.57;;;4.22;;
54921;SDS011;40824;45.116;21.296;2023-05-07T01:56:56;6.25;;;4.40;;
54921;SDS011;40824;45.116;21.296;2023-05-07T01:59:22;8.20;;;4.40;;
54921;SDS011;40824;45.116;21.296;2023-05-07T02:01:48;7.32;;;4.15;;
54921;SDS011;40824;45.116;21.296;2023-05-07T02:04:15;7.43;;;4.22;;
54921;SDS011;40824;45.116;21.296;2023-05-07T02:06:41;8.55;;;4.30;;
54921;SDS011;40824;45.116;21.296;2023-05-07T02:09:07;9.05;;;4.50;;
54921;SDS011;40824;45.116;21.296;2023-05-07T02:11:34;6.07;;;3.95;;
54921;SDS011;40824;45.116;21.296;2023-05-07T02:14:00;5.68;;;4.30;;
54921;SDS011;40824;45.116;21.296;2023-05-07T02:16:26;6.55;;;3.85;;
54921;SDS011;40824;45.116;21.296;2023-05-07T02:18:52;6.32;;;3.90;;
54921;SDS011;40824;45.116;21.296;2023-05-07T02:21:18;7.85;;;3.75;;
54921;SDS011;40824;45.116;21.296;2023-05-07T02:23:44;7.20;;;3.67;;
54921;SDS011;40824;45.116;21.296;2023-05-07T02:26:10;10.82;;;3.50;;
54921;SDS011;40824;45.116;21.296;2023-05-07T02:28:36;5.90;;;3.17;;
54921;SDS011;40824;45.116;21.296;2023-05-07T02:31:03;4.10;;;2.85;;
54921;SDS011;40824;45.116;21.296;2023-05-07T02:33:29;9.77;;;4.05;;
54921;SDS011;40824;45.116;21.296;2023-05-07T02:35:55;5.63;;;3.45;;
54921;SDS011;40824;45.116;21.296;2023-05-07T02:38:22;6.30;;;3.50;;
54921;SDS011;40824;45.116;21.296;2023-05-07T02:40:48;5.68;;;3.72;;
54921;SDS011;40824;45.116;21.296;2023-05-07T02:43:14;8.18;;;3.50;;
54921;SDS011;40824;45.116;21.296;2023-05-07T02:45:40;8.98;;;3.60;;
54921;SDS011;40824;45.116;21.296;2023-05-07T02:48:08;6.28;;;3.05;;
54921;SDS011;40824;45.116;21.296;2023-05-07T02:50:34;8.70;;;3.47;;
54921;SDS011;40824;45.116;21.296;2023-05-07T02:53:00;5.95;;;3.08;;
54921;SDS011;40824;45.116;21.296;2023-05-07T02:55:26;6.60;;;2.78;;
54921;SDS011;40824;45.116;21.296;2023-05-07T02:57:52;6.35;;;3.05;;
54921;SDS011;40824;45.116;21.296;2023-05-07T03:00:18;5.28;;;3.08;;
54921;SDS011;40824;45.116;21.296;2023-05-07T03:02:45;5.47;;;3.10;;
54921;SDS011;40824;45.116;21.296;2023-05-07T03:05:11;5.53;;;3.17;;
54921;SDS011;40824;45.116;21.296;2023-05-07T03:07:37;6.03;;;2.95;;
54921;SDS011;40824;45.116;21.296;2023-05-07T03:10:04;6.78;;;3.00;;
54921;SDS011;40824;45.116;21.296;2023-05-07T03:12:32;6.13;;;3.10;;
54921;SDS011;40824;45.116;21.296;2023-05-07T03:14:59;4.82;;;2.85;;
54921;SDS011;40824;45.116;21.296;2023-05-07T03:17:25;6.03;;;3.22;;
54921;SDS011;40824;45.116;21.296;2023-05-07T03:19:51;7.88;;;3.15;;
54921;SDS011;40824;45.116;21.296;2023-05-07T03:22:17;4.22;;;2.60;;
54921;SDS011;40824;45.116;21.296;2023-05-07T03:24:43;7.75;;;2.95;;
54921;SDS011;40824;45.116;21.296;2023-05-07T03:27:09;3.78;;;2.63;;
54921;SDS011;40824;45.116;21.296;2023-05-07T03:29:35;5.63;;;2.88;;
54921;SDS011;40824;45.116;21.296;2023-05-07T03:32:01;6.03;;;2.97;;
54921;SDS011;40824;45.116;21.296;2023-05-07T03:34:27;8.98;;;2.67;;
54921;SDS011;40824;45.116;21.296;2023-05-07T03:36:53;6.38;;;2.53;;
54921;SDS011;40824;45.116;21.296;2023-05-07T03:39:19;5.28;;;2.53;;
54921;SDS011;40824;45.116;21.296;2023-05-07T03:41:45;6.53;;;2.95;;
54921;SDS011;40824;45.116;21.296;2023-05-07T03:44:12;5.18;;;2.85;;
54921;SDS011;40824;45.116;21.296;2023-05-07T03:46:38;6.38;;;2.80;;
54921;SDS011;40824;45.116;21.296;2023-05-07T03:49:04;6.53;;;2.88;;
54921;SDS011;40824;45.116;21.296;2023-05-07T03:51:30;3.85;;;2.45;;
54921;SDS011;40824;45.116;21.296;2023-05-07T03:53:56;7.97;;;2.67;;
54921;SDS011;40824;45.116;21.296;2023-05-07T03:56:22;6.05;;;2.72;;
54921;SDS011;40824;45.116;21.296;2023-05-07T03:58:51;6.40;;;2.85;;
54921;SDS011;40824;45.116;21.296;2023-05-07T04:01:17;4.35;;;2.88;;
54921;SDS011;40824;45.116;21.296;2023-05-07T04:03:43;5.30;;;2.78;;
54921;SDS011;40824;45.116;21.296;2023-05-07T04:06:09;6.45;;;2.55;;
54921;SDS011;40824;45.116;21.296;2023-05-07T04:08:36;9.50;;;2.83;;
54921;SDS011;40824;45.116;21.296;2023-05-07T04:11:02;4.93;;;2.42;;
54921;SDS011;40824;45.116;21.296;2023-05-07T04:13:29;8.77;;;2.40;;
54921;SDS011;40824;45.116;21.296;2023-05-07T04:15:55;7.65;;;2.60;;
54921;SDS011;40824;45.116;21.296;2023-05-07T04:18:21;4.40;;;2.90;;
54921;SDS011;40824;45.116;21.296;2023-05-07T04:20:48;7.22;;;2.72;;
54921;SDS011;40824;45.116;21.296;2023-05-07T04:23:17;6.30;;;2.17;;
54921;SDS011;40824;45.116;21.296;2023-05-07T04:25:45;3.78;;;2.38;;
54921;SDS011;40824;45.116;21.296;2023-05-07T04:28:11;5.00;;;2.40;;
54921;SDS011;40824;45.116;21.296;2023-05-07T04:30:38;4.95;;;2.40;;
54921;SDS011;40824;45.116;21.296;2023-05-07T04:33:04;4.55;;;2.25;;
54921;SDS011;40824;45.116;21.296;2023-05-07T04:35:31;3.95;;;2.38;;
54921;SDS011;40824;45.116;21.296;2023-05-07T04:37:58;6.78;;;2.50;;
54921;SDS011;40824;45.116;21.296;2023-05-07T04:40:24;5.60;;;2.60;;
54921;SDS011;40824;45.116;21.296;2023-05-07T04:42:50;7.63;;;3.25;;
54921;SDS011;40824;45.116;21.296;2023-05-07T04:45:18;5.53;;;2.42;;
54921;SDS011;40824;45.116;21.296;2023-05-07T04:47:44;5.55;;;2.47;;
54921;SDS011;40824;45.116;21.296;2023-05-07T04:50:10;7.07;;;2.80;;
54921;SDS011;40824;45.116;21.296;2023-05-07T04:52:36;7.13;;;2.40;;
54921;SDS011;40824;45.116;21.296;2023-05-07T04:55:02;4.55;;;2.25;;
54921;SDS011;40824;45.116;21.296;2023-05-07T04:57:29;7.35;;;2.50;;
54921;SDS011;40824;45.116;21.296;2023-05-07T04:59:55;6.05;;;2.75;;
54921;SDS011;40824;45.116;21.296;2023-05-07T05:02:24;5.00;;;2.58;;
54921;SDS011;40824;45.116;21.296;2023-05-07T05:04:50;9.93;;;4.60;;
54921;SDS011;40824;45.116;21.296;2023-05-07T05:07:16;6.43;;;2.55;;
54921;SDS011;40824;45.116;21.296;2023-05-07T05:09:42;8.77;;;2.47;;
54921;SDS011;40824;45.116;21.296;2023-05-07T05:12:08;4.38;;;2.80;;
54921;SDS011;40824;45.116;21.296;2023-05-07T05:14:34;5.13;;;2.25;;
54921;SDS011;40824;45.116;21.296;2023-05-07T05:17:00;4.68;;;2.55;;
54921;SDS011;40824;45.116;21.296;2023-05-07T05:19:26;4.68;;;2.85;;
54921;SDS011;40824;45.116;21.296;2023-05-07T05:21:52;4.05;;;2.10;;
54921;SDS011;40824;45.116;21.296;2023-05-07T05:24:18;3.78;;;2.30;;
54921;SDS011;40824;45.116;21.296;2023-05-07T05:26:47;6.65;;;2.50;;
54921;SDS011;40824;45.116;21.296;2023-05-07T05:29:13;6.13;;;2.80;;
54921;SDS011;40824;45.116;21.296;2023-05-07T05:31:39;6.38;;;2.58;;
54921;SDS011;40824;45.116;21.296;2023-05-07T05:34:06;3.90;;;2.22;;
54921;SDS011;40824;45.116;21.296;2023-05-07T05:36:32;6.15;;;2.40;;
54921;SDS011;40824;45.116;21.296;2023-05-07T05:38:58;6.78;;;2.10;;
54921;SDS011;40824;45.116;21.296;2023-05-07T05:41:24;6.15;;;2.47;;
54921;SDS011;40824;45.116;21.296;2023-05-07T05:43:50;5.00;;;2.67;;
54921;SDS011;40824;45.116;21.296;2023-05-07T05:46:16;6.05;;;2.60;;
54921;SDS011;40824;45.116;21.296;2023-05-07T05:48:42;9.23;;;2.58;;
54921;SDS011;40824;45.116;21.296;2023-05-07T05:51:09;6.93;;;2.60;;
54921;SDS011;40824;45.116;21.296;2023-05-07T05:53:35;6.80;;;2.67;;
54921;SDS011;40824;45.116;21.296;2023-05-07T05:56:01;8.05;;;2.50;;
54921;SDS011;40824;45.116;21.296;2023-05-07T05:58:27;4.85;;;2.50;;
54921;SDS011;40824;45.116;21.296;2023-05-07T06:00:53;3.97;;;2.50;;
54921;SDS011;40824;45.116;21.296;2023-05-07T06:03:19;4.97;;;3.20;;
54921;SDS011;40824;45.116;21.296;2023-05-07T06:05:45;5.32;;;2.88;;
54921;SDS011;40824;45.116;21.296;2023-05-07T06:08:11;5.15;;;3.13;;
54921;SDS011;40824;45.116;21.296;2023-05-07T06:10:37;5.22;;;4.15;;
54921;SDS011;40824;45.116;21.296;2023-05-07T06:13:03;5.88;;;3.92;;
54921;SDS011;40824;45.116;21.296;2023-05-07T06:15:30;5.93;;;3.45;;
54921;SDS011;40824;45.116;21.296;2023-05-07T06:17:56;8.07;;;2.90;;
54921;SDS011;40824;45.116;21.296;2023-05-07T06:20:22;5.45;;;2.30;;
54921;SDS011;40824;45.116;21.296;2023-05-07T06:22:48;4.47;;;2.40;;
54921;SDS011;40824;45.116;21.296;2023-05-07T06:25:14;4.38;;;2.65;;
54921;SDS011;40824;45.116;21.296;2023-05-07T06:27:40;7.88;;;2.65;;
54921;SDS011;40824;45.116;21.296;2023-05-07T06:30:07;4.45;;;2.50;;
54921;SDS011;40824;45.116;21.296;2023-05-07T06:32:33;3.97;;;2.25;;
54921;SDS011;40824;45.116;21.296;2023-05-07T06:35:00;7.70;;;2.42;;
54921;SDS011;40824;45.116;21.296;2023-05-07T06:37:26;9.32;;;2.70;;
54921;SDS011;40824;45.116;21.296;2023-05-07T06:39:52;6.72;;;2.40;;
54921;SDS011;40824;45.116;21.296;2023-05-07T06:42:18;8.90;;;2.67;;
54921;SDS011;40824;45.116;21.296;2023-05-07T06:44:44;8.10;;;2.55;;
54921;SDS011;40824;45.116;21.296;2023-05-07T06:47:10;6.53;;;2.15;;
54921;SDS011;40824;45.116;21.296;2023-05-07T06:49:36;4.45;;;2.25;;
54921;SDS011;40824;45.116;21.296;2023-05-07T06:52:02;8.70;;;2.58;;
54921;SDS011;40824;45.116;21.296;2023-05-07T06:54:30;2.75;;;1.98;;
54921;SDS011;40824;45.116;21.296;2023-05-07T06:56:56;2.67;;;2.00;;
54921;SDS011;40824;45.116;21.296;2023-05-07T06:59:23;5.25;;;2.42;;
54921;SDS011;40824;45.116;21.296;2023-05-07T07:01:49;7.15;;;2.67;;
54921;SDS011;40824;45.116;21.296;2023-05-07T07:04:15;4.68;;;2.20;;
54921;SDS011;40824;45.116;21.296;2023-05-07T07:06:41;4.15;;;2.10;;
54921;SDS011;40824;45.116;21.296;2023-05-07T07:09:07;7.50;;;2.00;;
54921;SDS011;40824;45.116;21.296;2023-05-07T07:11:33;4.15;;;2.40;;
54921;SDS011;40824;45.116;21.296;2023-05-07T07:13:59;5.03;;;2.40;;
54921;SDS011;40824;45.116;21.296;2023-05-07T07:16:25;7.18;;;2.40;;
54921;SDS011;40824;45.116;21.296;2023-05-07T07:18:51;9.27;;;2.75;;
54921;SDS011;40824;45.116;21.296;2023-05-07T07:21:17;4.18;;;2.58;;
54921;SDS011;40824;45.116;21.296;2023-05-07T07:23:43;7.35;;;2.33;;
54921;SDS011;40824;45.116;21.296;2023-05-07T07:26:09;4.97;;;2.80;;
54921;SDS011;40824;45.116;21.296;2023-05-07T07:28:41;8.27;;;2.67;;
54921;SDS011;40824;45.116;21.296;2023-05-07T07:31:07;4.50;;;2.92;;
54921;SDS011;40824;45.116;21.296;2023-05-07T07:33:33;5.28;;;2.67;;
54921;SDS011;40824;45.116;21.296;2023-05-07T07:36:01;4.55;;;3.00;;
54921;SDS011;40824;45.116;21.296;2023-05-07T07:38:27;6.45;;;2.60;;
54921;SDS011;40824;45.116;21.296;2023-05-07T07:40:53;5.90;;;2.90;;
54921;SDS011;40824;45.116;21.296;2023-05-07T07:43:19;5.85;;;2.67;;
54921;SDS011;40824;45.116;21.296;2023-05-07T07:45:45;6.75;;;2.55;;
54921;SDS011;40824;45.116;21.296;2023-05-07T07:48:12;4.72;;;2.20;;
54921;SDS011;40824;45.116;21.296;2023-05-07T07:50:38;5.65;;;2.90;;
54921;SDS011;40824;45.116;21.296;2023-05-07T07:53:04;8.05;;;2.65;;
54921;SDS011;40824;45.116;21.296;2023-05-07T07:55:30;5.20;;;2.53;;
54921;SDS011;40824;45.116;21.296;2023-05-07T07:57:57;7.22;;;2.70;;
54921;SDS011;40824;45.116;21.296;2023-05-07T08:00:23;6.47;;;2.80;;
54921;SDS011;40824;45.116;21.296;2023-05-07T08:02:49;6.85;;;3.90;;
54921;SDS011;40824;45.116;21.296;2023-05-07T08:05:15;7.22;;;2.50;;
54921;SDS011;40824;45.116;21.296;2023-05-07T08:07:41;7.97;;;2.97;;
54921;SDS011;40824;45.116;21.296;2023-05-07T08:10:07;10.00;;;2.60;;
54921;SDS011;40824;45.116;21.296;2023-05-07T08:12:33;5.80;;;2.78;;
54921;SDS011;40824;45.116;21.296;2023-05-07T08:14:59;4.53;;;2.28;;
54921;SDS011;40824;45.116;21.296;2023-05-07T08:17:25;6.55;;;2.92;;
54921;SDS011;40824;45.116;21.296;2023-05-07T08:19:51;6.72;;;3.13;;
54921;SDS011;40824;45.116;21.296;2023-05-07T08:22:17;7.28;;;2.88;;
54921;SDS011;40824;45.116;21.296;2023-05-07T08:24:43;5.55;;;3.90;;
54921;SDS011;40824;45.116;21.296;2023-05-07T08:27:10;5.57;;;3.05;;
54921;SDS011;40824;45.116;21.296;2023-05-07T08:29:36;6.20;;;3.03;;
54921;SDS011;40824;45.116;21.296;2023-05-07T08:32:02;8.15;;;4.50;;
54921;SDS011;40824;45.116;21.296;2023-05-07T08:34:28;5.60;;;2.75;;
54921;SDS011;40824;45.116;21.296;2023-05-07T08:36:54;6.78;;;2.45;;
54921;SDS011;40824;45.116;21.296;2023-05-07T08:39:20;6.60;;;3.10;;
54921;SDS011;40824;45.116;21.296;2023-05-07T08:41:46;7.10;;;2.92;;
54921;SDS011;40824;45.116;21.296;2023-05-07T08:44:13;7.63;;;2.53;;
54921;SDS011;40824;45.116;21.296;2023-05-07T08:46:39;5.82;;;2.40;;
54921;SDS011;40824;45.116;21.296;2023-05-07T08:49:07;7.25;;;3.38;;
54921;SDS011;40824;45.116;21.296;2023-05-07T08:51:33;4.57;;;3.03;;
54921;SDS011;40824;45.116;21.296;2023-05-07T08:54:00;6.65;;;3.05;;
54921;SDS011;40824;45.116;21.296;2023-05-07T08:56:27;5.72;;;2.55;;
54921;SDS011;40824;45.116;21.296;2023-05-07T08:58:53;4.43;;;2.70;;
54921;SDS011;40824;45.116;21.296;2023-05-07T09:01:21;9.65;;;2.80;;
54921;SDS011;40824;45.116;21.296;2023-05-07T09:03:49;5.90;;;2.78;;
54921;SDS011;40824;45.116;21.296;2023-05-07T09:06:15;13.90;;;3.17;;
54921;SDS011;40824;45.116;21.296;2023-05-07T09:08:44;4.50;;;2.40;;
54921;SDS011;40824;45.116;21.296;2023-05-07T09:11:14;4.68;;;2.90;;
54921;SDS011;40824;45.116;21.296;2023-05-07T09:13:40;4.65;;;2.55;;
54921;SDS011;40824;45.116;21.296;2023-05-07T09:16:10;8.25;;;2.78;;
54921;SDS011;40824;45.116;21.296;2023-05-07T09:18:43;5.15;;;3.00;;
54921;SDS011;40824;45.116;21.296;2023-05-07T09:21:10;4.53;;;2.80;;
54921;SDS011;40824;45.116;21.296;2023-05-07T09:23:37;4.80;;;2.97;;
54921;SDS011;40824;45.116;21.296;2023-05-07T09:26:03;3.10;;;2.33;;
54921;SDS011;40824;45.116;21.296;2023-05-07T09:28:32;6.85;;;2.70;;
54921;SDS011;40824;45.116;21.296;2023-05-07T09:30:58;7.60;;;2.80;;
54921;SDS011;40824;45.116;21.296;2023-05-07T09:33:26;4.82;;;3.00;;
54921;SDS011;40824;45.116;21.296;2023-05-07T09:35:53;3.97;;;2.17;;
54921;SDS011;40824;45.116;21.296;2023-05-07T09:38:19;4.90;;;2.28;;
54921;SDS011;40824;45.116;21.296;2023-05-07T09:40:47;5.32;;;2.75;;
54921;SDS011;40824;45.116;21.296;2023-05-07T09:43:13;8.20;;;2.85;;
54921;SDS011;40824;45.116;21.296;2023-05-07T09:45:39;3.88;;;2.13;;
54921;SDS011;40824;45.116;21.296;2023-05-07T09:48:06;3.55;;;2.42;;
54921;SDS011;40824;45.116;21.296;2023-05-07T09:50:36;5.05;;;2.63;;
54921;SDS011;40824;45.116;21.296;2023-05-07T09:53:06;6.28;;;2.70;;
54921;SDS011;40824;45.116;21.296;2023-05-07T09:55:34;4.65;;;3.13;;
54921;SDS011;40824;45.116;21.296;2023-05-07T09:58:00;3.75;;;2.40;;
54921;SDS011;40824;45.116;21.296;2023-05-07T10:00:27;4.57;;;2.72;;
54921;SDS011;40824;45.116;21.296;2023-05-07T10:02:55;4.53;;;2.70;;
54921;SDS011;40824;45.116;21.296;2023-05-07T10:05:22;6.38;;;2.67;;
54921;SDS011;40824;45.116;21.296;2023-05-07T10:07:48;7.53;;;2.67;;
54921;SDS011;40824;45.116;21.296;2023-05-07T10:10:14;7.57;;;2.85;;
54921;SDS011;40824;45.116;21.296;2023-05-07T10:12:41;6.57;;;2.70;;
54921;SDS011;40824;45.116;21.296;2023-05-07T10:15:10;3.28;;;2.42;;
54921;SDS011;40824;45.116;21.296;2023-05-07T10:17:37;5.22;;;2.50;;
54921;SDS011;40824;45.116;21.296;2023-05-07T10:20:07;6.57;;;2.90;;
54921;SDS011;40824;45.116;21.296;2023-05-07T10:22:38;3.80;;;2.25;;
54921;SDS011;40824;45.116;21.296;2023-05-07T10:25:06;4.93;;;2.72;;
54921;SDS011;40824;45.116;21.296;2023-05-07T10:27:36;9.18;;;2.60;;
54921;SDS011;40824;45.116;21.296;2023-05-07T10:32:30;6.53;;;2.60;;
54921;SDS011;40824;45.116;21.296;2023-05-07T10:35:00;6.70;;;2.50;;
54921;SDS011;40824;45.116;21.296;2023-05-07T10:37:26;5.65;;;2.70;;
54921;SDS011;40824;45.116;21.296;2023-05-07T10:39:53;4.50;;;2.38;;
54921;SDS011;40824;45.116;21.296;2023-05-07T10:42:19;6.50;;;2.75;;
54921;SDS011;40824;45.116;21.296;2023-05-07T10:44:45;4.93;;;2.70;;
54921;SDS011;40824;45.116;21.296;2023-05-07T10:47:12;4.07;;;2.63;;
54921;SDS011;40824;45.116;21.296;2023-05-07T10:54:40;6.15;;;2.65;;
54921;SDS011;40824;45.116;21.296;2023-05-07T10:59:51;8.93;;;3.33;;
54921;SDS011;40824;45.116;21.296;2023-05-07T11:02:18;4.03;;;2.53;;
54921;SDS011;40824;45.116;21.296;2023-05-07T11:04:44;4.38;;;3.10;;
54921;SDS011;40824;45.116;21.296;2023-05-07T11:15:09;6.75;;;3.28;;
54921;SDS011;40824;45.116;21.296;2023-05-07T11:20:02;4.40;;;2.78;;
54921;SDS011;40824;45.116;21.296;2023-05-07T11:25:01;4.25;;;2.50;;
54921;SDS011;40824;45.116;21.296;2023-05-07T11:27:28;5.55;;;3.00;;
54921;SDS011;40824;45.116;21.296;2023-05-07T11:29:54;4.95;;;2.92;;
54921;SDS011;40824;45.116;21.296;2023-05-07T11:32:23;5.25;;;2.50;;
54921;SDS011;40824;45.116;21.296;2023-05-07T11:34:55;4.72;;;2.85;;
54921;SDS011;40824;45.116;21.296;2023-05-07T11:37:22;4.65;;;3.03;;
54921;SDS011;40824;45.116;21.296;2023-05-07T11:39:48;5.55;;;2.42;;
54921;SDS011;40824;45.116;21.296;2023-05-07T11:42:33;5.53;;;2.72;;
54921;SDS011;40824;45.116;21.296;2023-05-07T11:45:01;5.85;;;2.38;;
54921;SDS011;40824;45.116;21.296;2023-05-07T11:47:30;5.25;;;3.15;;
54921;SDS011;40824;45.116;21.296;2023-05-07T11:49:56;9.07;;;3.20;;
54921;SDS011;40824;45.116;21.296;2023-05-07T11:52:23;6.20;;;3.08;;
54921;SDS011;40824;45.116;21.296;2023-05-07T11:54:54;8.32;;;3.95;;
54921;SDS011;40824;45.116;21.296;2023-05-07T11:57:20;9.60;;;4.43;;
54921;SDS011;40824;45.116;21.296;2023-05-07T11:59:47;5.65;;;2.83;;
54921;SDS011;40824;45.116;21.296;2023-05-07T12:02:14;4.57;;;2.63;;
54921;SDS011;40824;45.116;21.296;2023-05-07T12:04:40;4.07;;;2.60;;
54921;SDS011;40824;45.116;21.296;2023-05-07T12:07:16;4.85;;;2.83;;
54921;SDS011;40824;45.116;21.296;2023-05-07T12:09:43;6.60;;;3.00;;
54921;SDS011;40824;45.116;21.296;2023-05-07T12:12:09;6.65;;;2.60;;
54921;SDS011;40824;45.116;21.296;2023-05-07T12:14:39;5.32;;;2.75;;
54921;SDS011;40824;45.116;21.296;2023-05-07T12:17:05;7.35;;;2.67;;
54921;SDS011;40824;45.116;21.296;2023-05-07T12:19:32;4.95;;;2.85;;
54921;SDS011;40824;45.116;21.296;2023-05-07T12:21:59;6.50;;;2.55;;
54921;SDS011;40824;45.116;21.296;2023-05-07T12:24:25;5.18;;;2.78;;
54921;SDS011;40824;45.116;21.296;2023-05-07T12:26:51;5.63;;;2.78;;
54921;SDS011;40824;45.116;21.296;2023-05-07T12:29:21;4.75;;;2.40;;
54921;SDS011;40824;45.116;21.296;2023-05-07T12:31:47;4.45;;;2.70;;
54921;SDS011;40824;45.116;21.296;2023-05-07T12:34:15;8.05;;;2.83;;
54921;SDS011;40824;45.116;21.296;2023-05-07T12:36:42;5.82;;;2.67;;
54921;SDS011;40824;45.116;21.296;2023-05-07T12:39:08;4.22;;;2.85;;
54921;SDS011;40824;45.116;21.296;2023-05-07T12:44:21;5.07;;;2.78;;
54921;SDS011;40824;45.116;21.296;2023-05-07T12:46:48;5.88;;;2.80;;
54921;SDS011;40824;45.116;21.296;2023-05-07T12:49:15;8.25;;;3.30;;
54921;SDS011;40824;45.116;21.296;2023-05-07T12:51:41;5.93;;;3.17;;
54921;SDS011;40824;45.116;21.296;2023-05-07T12:54:07;5.28;;;2.83;;
54921;SDS011;40824;45.116;21.296;2023-05-07T12:56:35;6.10;;;3.35;;
54921;SDS011;40824;45.116;21.296;2023-05-07T12:59:02;3.55;;;2.50;;
54921;SDS011;40824;45.116;21.296;2023-05-07T13:01:28;4.20;;;2.70;;
54921;SDS011;40824;45.116;21.296;2023-05-07T13:03:56;6.43;;;3.40;;
54921;SDS011;40824;45.116;21.296;2023-05-07T13:06:26;6.07;;;3.15;;
54921;SDS011;40824;45.116;21.296;2023-05-07T13:08:52;6.40;;;2.97;;
54921;SDS011;40824;45.116;21.296;2023-05-07T13:11:18;7.68;;;3.40;;
54921;SDS011;40824;45.116;21.296;2023-05-07T13:13:46;8.02;;;3.08;;
54921;SDS011;40824;45.116;21.296;2023-05-07T13:16:12;4.72;;;2.88;;
54921;SDS011;40824;45.116;21.296;2023-05-07T13:18:38;4.97;;;2.72;;
54921;SDS011;40824;45.116;21.296;2023-05-07T13:21:05;6.55;;;2.95;;
54921;SDS011;40824;45.116;21.296;2023-05-07T13:23:31;5.93;;;3.13;;
54921;SDS011;40824;45.116;21.296;2023-05-07T13:25:57;6.07;;;3.22;;
54921;SDS011;40824;45.116;21.296;2023-05-07T13:28:23;7.47;;;3.90;;
54921;SDS011;40824;45.116;21.296;2023-05-07T13:30:50;7.18;;;3.03;;
54921;SDS011;40824;45.116;21.296;2023-05-07T13:33:17;4.82;;;2.72;;
54921;SDS011;40824;45.116;21.296;2023-05-07T13:35:44;4.88;;;3.05;;
54921;SDS011;40824;45.116;21.296;2023-05-07T13:38:10;4.00;;;2.90;;
54921;SDS011;40824;45.116;21.296;2023-05-07T13:40:36;6.07;;;2.67;;
54921;SDS011;40824;45.116;21.296;2023-05-07T13:43:02;7.07;;;3.53;;
54921;SDS011;40824;45.116;21.296;2023-05-07T13:45:28;6.20;;;3.05;;
54921;SDS011;40824;45.116;21.296;2023-05-07T13:47:55;7.90;;;2.70;;
54921;SDS011;40824;45.116;21.296;2023-05-07T13:50:21;3.47;;;2.70;;
54921;SDS011;40824;45.116;21.296;2023-05-07T13:52:47;6.00;;;2.53;;
54921;SDS011;40824;45.116;21.296;2023-05-07T13:55:18;4.57;;;3.03;;
54921;SDS011;40824;45.116;21.296;2023-05-07T13:57:45;6.20;;;3.63;;
54921;SDS011;40824;45.116;21.296;2023-05-07T14:00:11;6.38;;;2.65;;
54921;SDS011;40824;45.116;21.296;2023-05-07T14:02:37;5.50;;;3.38;;
54921;SDS011;40824;45.116;21.296;2023-05-07T14:05:04;4.25;;;2.90;;
54921;SDS011;40824;45.116;21.296;2023-05-07T14:07:30;4.60;;;2.83;;
54921;SDS011;40824;45.116;21.296;2023-05-07T14:09:56;6.68;;;2.90;;
54921;SDS011;40824;45.116;21.296;2023-05-07T14:12:22;6.15;;;2.80;;
54921;SDS011;40824;45.116;21.296;2023-05-07T14:14:48;4.40;;;2.58;;
54921;SDS011;40824;45.116;21.296;2023-05-07T14:17:16;8.15;;;2.83;;
54921;SDS011;40824;45.116;21.296;2023-05-07T14:19:42;4.13;;;2.85;;
54921;SDS011;40824;45.116;21.296;2023-05-07T14:22:08;5.55;;;3.15;;
54921;SDS011;40824;45.116;21.296;2023-05-07T14:24:35;5.82;;;2.95;;
54921;SDS011;40824;45.116;21.296;2023-05-07T14:27:01;5.95;;;2.85;;
54921;SDS011;40824;45.116;21.296;2023-05-07T14:29:27;5.25;;;2.95;;
54921;SDS011;40824;45.116;21.296;2023-05-07T14:31:53;5.20;;;3.03;;
54921;SDS011;40824;45.116;21.296;2023-05-07T14:34:20;5.15;;;2.63;;
54921;SDS011;40824;45.116;21.296;2023-05-07T14:36:47;7.93;;;2.75;;
54921;SDS011;40824;45.116;21.296;2023-05-07T14:39:13;6.32;;;3.47;;
54921;SDS011;40824;45.116;21.296;2023-05-07T14:41:39;6.22;;;3.50;;
54921;SDS011;40824;45.116;21.296;2023-05-07T14:44:05;6.38;;;3.03;;
54921;SDS011;40824;45.116;21.296;2023-05-07T14:46:32;6.07;;;3.10;;
54921;SDS011;40824;45.116;21.296;2023-05-07T14:48:58;4.35;;;2.70;;
54921;SDS011;40824;45.116;21.296;2023-05-07T14:51:25;4.25;;;2.80;;
54921;SDS011;40824;45.116;21.296;2023-05-07T14:53:53;5.25;;;2.80;;
54921;SDS011;40824;45.116;21.296;2023-05-07T14:56:19;5.10;;;2.95;;